createdAt,value
2019-04-24T00:01:06.008Z,991.97
2019-04-24T00:06:07.962Z,991.89
2019-04-24T00:11:18.579Z,991.95
2019-04-24T00:16:57.326Z,991.94
2019-04-24T00:20:59.849Z,991.92
2019-04-24T00:25:53.941Z,991.97
2019-04-24T00:31:01.112Z,991.96
2019-04-24T00:41:11.623Z,991.95
2019-04-24T00:45:57.695Z,991.98
2019-04-24T00:51:06.312Z,991.96
2019-04-24T00:56:07.984Z,992.02
2019-04-24T01:01:20.872Z,991.97
2019-04-24T01:10:49.406Z,992.04
2019-04-24T01:15:54.082Z,992.04
2019-04-24T01:20:53.587Z,992.00
2019-04-24T01:25:54.463Z,992.06
2019-04-24T01:40:56.708Z,992.22
2019-04-24T01:50:39.390Z,992.16
2019-04-24T01:55:48.223Z,992.16
2019-04-24T02:00:53.845Z,992.16
2019-04-24T02:05:43.095Z,992.23
2019-04-24T02:10:51.205Z,992.16
2019-04-24T02:15:38.475Z,992.11
2019-04-24T02:25:54.660Z,992.13
2019-04-24T02:40:59.489Z,992.23
2019-04-24T02:50:48.198Z,992.22
2019-04-24T02:55:32.200Z,992.20
2019-04-24T03:10:57.681Z,992.21
2019-04-24T03:21:01.832Z,992.31
2019-04-24T03:26:19.834Z,992.30
2019-04-24T03:41:14.311Z,992.35
2019-04-24T03:45:49.401Z,992.55
2019-04-24T03:51:22.219Z,992.55
2019-04-24T04:10:42.651Z,992.78
2019-04-24T04:25:49.480Z,992.80
2019-04-24T04:35:26.593Z,992.88
2019-04-24T04:40:46.213Z,992.96
2019-04-24T04:46:07.948Z,992.99
2019-04-24T05:00:41.805Z,993.13
2019-04-24T05:10:29.346Z,993.08
2019-04-24T05:15:23.857Z,993.12
2019-04-24T05:20:43.054Z,993.30
2019-04-24T05:30:28.552Z,993.36
2019-04-24T05:40:32.910Z,993.40
2019-04-24T05:45:32.550Z,993.42
2019-04-24T05:51:33.445Z,993.48
2019-04-24T05:55:42.394Z,993.46
2019-04-24T06:00:27.747Z,993.41
2019-04-24T06:05:25.849Z,993.41
2019-04-24T06:10:31.739Z,993.51
2019-04-24T06:15:36.376Z,993.64
2019-04-24T06:20:42.474Z,993.67
2019-04-24T06:25:32.500Z,993.69
2019-04-24T06:30:52.128Z,993.72
2019-04-24T06:35:53.026Z,993.68
2019-04-24T06:45:19.239Z,993.81
2019-04-24T06:50:29.067Z,993.80
2019-04-24T06:55:17.911Z,993.85
2019-04-24T07:05:27.428Z,993.88
2019-04-24T07:10:31.710Z,993.88
2019-04-24T07:15:19.672Z,993.88
2019-04-24T07:20:27.604Z,993.98
2019-04-24T07:25:29.320Z,994.00
2019-04-24T07:35:38.189Z,994.14
2019-04-24T07:40:08.969Z,994.11
2019-04-24T07:45:21.951Z,994.20
2019-04-24T07:50:44.102Z,994.36
2019-04-24T07:55:17.159Z,994.38
2019-04-24T08:05:06.386Z,994.61
2019-04-24T08:20:22.028Z,994.53
2019-04-24T08:30:14.567Z,994.69
2019-04-24T08:35:20.088Z,994.78
2019-04-24T08:50:15.061Z,994.76
2019-04-24T08:55:21.243Z,994.88
2019-04-24T09:05:31.881Z,995.04
2019-04-24T09:10:35.982Z,994.97
2019-04-24T09:15:07.354Z,995.04
2019-04-24T09:25:18.835Z,995.03
2019-04-24T09:35:23.453Z,995.15
2019-04-24T09:45:15.113Z,995.32
2019-04-24T09:55:12.465Z,995.32
2019-04-24T10:00:10.588Z,995.45
2019-04-24T10:05:08.049Z,995.28
2019-04-24T10:10:12.033Z,995.31
2019-04-24T10:15:05.992Z,995.31
2019-04-24T10:25:12.319Z,995.40
2019-04-24T10:35:12.548Z,995.31
2019-04-24T10:40:15.283Z,995.38
2019-04-24T10:50:31.487Z,995.13
2019-04-24T10:55:11.756Z,995.17
2019-04-24T11:00:06.148Z,995.10
2019-04-24T11:05:12.965Z,995.20
2019-04-24T11:15:09.627Z,995.07
2019-04-24T11:20:10.140Z,995.13
2019-04-24T11:30:09.789Z,995.07
2019-04-24T11:40:26.790Z,994.98
2019-04-24T11:45:25.663Z,995.12
2019-04-24T11:50:38.834Z,995.09
2019-04-24T11:55:25.821Z,995.05
2019-04-24T11:59:51.027Z,994.86
2019-04-24T12:05:12.668Z,995.04
2019-04-24T12:10:12.173Z,995.08
2019-04-24T12:15:09.767Z,995.03
2019-04-24T12:20:06.997Z,994.95
2019-04-24T12:25:06.041Z,995.01
2019-04-24T12:30:02.262Z,994.86
2019-04-24T12:34:59.090Z,994.95
2019-04-24T12:40:07.140Z,994.85
2019-04-24T12:44:58.035Z,994.77
2019-04-24T12:55:01.248Z,994.64
2019-04-24T12:59:48.440Z,994.49
2019-04-24T13:05:08.936Z,994.57
2019-04-24T13:10:06.817Z,994.52
2019-04-24T13:15:03.775Z,994.58
2019-04-24T13:19:30.241Z,994.34
2019-04-24T13:24:43.803Z,994.41
2019-04-24T13:30:13.716Z,994.17
2019-04-24T13:35:01.842Z,994.27
2019-04-24T13:39:52.777Z,994.20
2019-04-24T13:45:04.898Z,994.06
2019-04-24T13:49:54.115Z,994.01
2019-04-24T13:54:57.006Z,994.03
2019-04-24T14:00:13.941Z,993.92
2019-04-24T14:04:56.996Z,993.88
2019-04-24T14:20:00.532Z,993.82
2019-04-24T14:25:08.493Z,993.79
2019-04-24T14:34:58.180Z,993.74
2019-04-24T14:40:04.015Z,993.67
2019-04-24T14:45:02.832Z,993.73
2019-04-24T14:49:48.544Z,993.53
2019-04-24T14:55:06.978Z,993.51
2019-04-24T14:59:55.464Z,993.46
2019-04-24T15:04:56.143Z,993.43
2019-04-24T15:09:52.720Z,993.41
2019-04-24T15:20:07.328Z,993.32
2019-04-24T15:25:03.939Z,993.24
2019-04-24T15:29:49.916Z,993.10
2019-04-24T15:34:50.032Z,993.15
2019-04-24T15:40:17.618Z,993.13
2019-04-24T15:44:57.130Z,993.02
2019-04-24T15:49:56.505Z,993.05
2019-04-24T15:54:15.249Z,993.07
2019-04-24T15:59:33.938Z,993.18
2019-04-24T16:04:49.130Z,993.10
2019-04-24T16:09:10.550Z,993.14
2019-04-24T16:14:22.958Z,993.14
2019-04-24T16:19:40.868Z,993.14
2019-04-24T16:24:53.842Z,993.09
2019-04-24T16:29:35.068Z,993.10
2019-04-24T16:34:31.810Z,993.00
2019-04-24T16:39:21.257Z,992.90
2019-04-24T16:44:42.686Z,992.97
2019-04-24T16:54:45.135Z,992.83
2019-04-24T17:29:37.193Z,992.40
2019-04-24T17:34:38.568Z,992.41
2019-04-24T17:38:59.359Z,992.59
2019-04-24T17:49:24.563Z,992.74
2019-04-24T17:54:19.538Z,992.77
2019-04-24T17:58:52.868Z,992.91
2019-04-24T18:03:51.770Z,992.95
2019-04-24T18:08:48.917Z,992.99
2019-04-24T18:13:45.489Z,993.05
2019-04-24T18:18:42.673Z,992.99
2019-04-24T18:23:38.297Z,993.11
2019-04-24T18:28:34.688Z,993.01
2019-04-24T18:33:31.786Z,993.06
2019-04-24T18:38:27.686Z,993.08
2019-04-24T18:43:23.878Z,993.03
2019-04-24T18:48:21.552Z,993.82
2019-04-24T18:53:17.831Z,994.61
2019-04-24T18:58:14.551Z,995.09
2019-04-24T19:03:12.065Z,995.43
2019-04-24T19:08:08.691Z,995.82
2019-04-24T19:13:03.247Z,996.27
2019-04-24T19:17:59.624Z,996.29
2019-04-24T19:23:02.216Z,996.43
2019-04-24T19:27:54.544Z,996.92
2019-04-24T19:32:49.542Z,996.99
2019-04-24T19:37:46.322Z,997.27
2019-04-24T19:42:42.876Z,997.35
2019-04-24T19:47:39.112Z,997.48
2019-04-24T19:52:34.862Z,998.02
2019-04-24T19:57:31.312Z,998.27
2019-04-24T20:02:26.680Z,998.50
2019-04-24T20:07:23.578Z,998.43
2019-04-24T20:12:19.101Z,998.35
2019-04-24T20:17:16.734Z,998.35
2019-04-24T20:22:13.846Z,998.53
2019-04-24T20:27:09.323Z,998.75
2019-04-24T20:32:05.266Z,998.64
2019-04-24T20:37:01.460Z,998.76
2019-04-24T20:41:56.810Z,999.46
2019-04-24T20:46:52.502Z,999.21
2019-04-24T20:51:48.227Z,999.19
2019-04-24T20:56:44.129Z,999.22
2019-04-24T21:01:41.624Z,999.11
2019-04-24T21:06:36.790Z,998.96
2019-04-24T21:11:32.307Z,999.02
2019-04-24T21:16:29.181Z,999.11
2019-04-24T21:21:25.087Z,999.03
2019-04-24T21:26:21.144Z,998.68
2019-04-24T21:31:18.477Z,998.65
2019-04-24T21:36:15.478Z,998.92
2019-04-24T21:41:11.044Z,999.41
2019-04-24T21:46:07.506Z,999.50
2019-04-24T21:51:03.678Z,999.39
2019-04-24T21:55:59.563Z,999.30
2019-04-24T22:00:57.905Z,999.26
2019-04-24T22:05:53.040Z,998.68
2019-04-24T22:10:48.634Z,997.99
2019-04-24T22:15:45.419Z,998.05
2019-04-24T22:20:41.974Z,998.72
2019-04-24T22:25:38.623Z,999.37
2019-04-24T22:30:35.414Z,999.39
2019-04-24T22:35:31.127Z,999.65
2019-04-24T22:40:29.649Z,999.79
2019-04-24T22:45:25.949Z,999.68
2019-04-24T22:50:21.501Z,999.77
2019-04-24T22:55:17.969Z,999.96
2019-04-24T23:00:14.016Z,1000.01
2019-04-24T23:05:11.670Z,1000.10
2019-04-24T23:10:08.226Z,1000.03
2019-04-24T23:15:04.473Z,1000.10
2019-04-24T23:20:01.461Z,1000.27
2019-04-24T23:24:57.188Z,1000.12
2019-04-24T23:29:52.736Z,1000.15
2019-04-24T23:34:51.269Z,1000.00
2019-04-24T23:39:46.495Z,999.75
2019-04-24T23:44:43.467Z,999.82
2019-04-24T23:49:39.224Z,999.75
2019-04-24T23:54:35.384Z,999.69
2019-04-24T23:59:31.623Z,999.64
